SLSN weather

Sanandita Airport
Gran Chaco, Tarija Department, Bolivia

Public forecast

Using degrees Celsius for public forecast. Weather courtesy of forecast.io.

METAR (pilot weather report)

Closest report is Yacuiba Airport, 18.9 nm (35.0 km) S. Retrieved 2019/09/22 13:00 UTC (13 minutes ago):

SLYA 221300Z 00000KT 9999 OVC070 19/10 Q1025

TAF (pilot weather forecast)

Forecast is more than 12 hours old.

Closest forecast is Yacuiba Airport, 18.9 nm (35.0 km) S. Retrieved 2019/09/08 18:30 UTC (14 days ago):

TAF SLYA 081600Z 0818/0918 06010KT 9999 FEW020 SCT070 TX27/0819Z TN13 /0911Z BECMG 0900/0902 00000KT